createdAt,value
2018-12-22T00:02:20.906Z,99531.81
2018-12-22T00:06:24.414Z,99532.78
2018-12-22T00:10:27.973Z,99531.62
2018-12-22T00:14:31.399Z,99528.30
2018-12-22T00:18:34.988Z,99523.19
2018-12-22T00:22:38.437Z,99519.81
2018-12-22T00:26:41.868Z,99522.55
2018-12-22T00:30:45.309Z,99514.05
2018-12-22T00:34:51.878Z,99528.98
2018-12-22T00:38:55.326Z,99528.69
2018-12-22T00:42:58.803Z,99521.87
2018-12-22T00:47:02.244Z,99520.67
2018-12-22T00:51:05.825Z,99519.02
2018-12-22T00:55:09.284Z,99526.96
2018-12-22T00:59:12.822Z,99524.01
2018-12-22T01:03:16.370Z,99523.22
2018-12-22T01:07:19.847Z,99515.84
2018-12-22T01:11:23.260Z,99522.40
2018-12-22T01:15:26.723Z,99518.19
2018-12-22T01:19:30.208Z,99525.38
2018-12-22T01:23:33.619Z,99519.44
2018-12-22T01:27:37.143Z,99524.80
2018-12-22T01:31:40.591Z,99524.02
2018-12-22T01:35:44.036Z,99528.92
2018-12-22T01:39:47.479Z,99519.95
2018-12-22T01:43:50.962Z,99518.34
2018-12-22T01:47:54.364Z,99508.38
2018-12-22T01:51:57.823Z,99511.06
2018-12-22T01:56:01.246Z,99507.20
2018-12-22T02:00:05.151Z,99504.95
2018-12-22T02:04:08.607Z,99499.73
2018-12-22T02:08:12.042Z,99505.02
2018-12-22T02:12:15.650Z,99499.02
2018-12-22T02:16:19.093Z,99498.11
2018-12-22T02:20:22.517Z,99488.91
2018-12-22T02:24:25.960Z,99484.09
2018-12-22T02:28:29.420Z,99483.30
2018-12-22T02:32:32.899Z,99479.42
2018-12-22T02:36:36.376Z,99478.59
2018-12-22T02:40:39.840Z,99479.97
2018-12-22T02:44:43.317Z,99476.61
2018-12-22T02:48:46.749Z,99451.91
2018-12-22T02:52:50.387Z,99449.95
2018-12-22T02:56:53.794Z,99455.34
2018-12-22T03:00:57.255Z,99442.00
2018-12-22T03:05:00.698Z,99447.39
2018-12-22T03:09:05.157Z,99449.25
2018-12-22T03:13:08.620Z,99442.06
2018-12-22T03:17:12.059Z,99436.19
2018-12-22T03:21:15.526Z,99419.90
2018-12-22T03:25:18.976Z,99430.58
2018-12-22T03:29:22.430Z,99437.66
2018-12-22T03:33:25.879Z,99441.72
2018-12-22T03:37:29.328Z,99437.91
2018-12-22T03:41:32.807Z,99438.92
2018-12-22T03:45:36.316Z,99452.47
2018-12-22T03:49:39.764Z,99449.51
2018-12-22T03:53:43.227Z,99445.23
2018-12-22T03:57:46.667Z,99459.72
2018-12-22T04:01:50.095Z,99450.64
2018-12-22T04:05:53.526Z,99452.54
2018-12-22T04:09:56.953Z,99445.23
2018-12-22T04:14:00.417Z,99456.27
2018-12-22T04:18:04.724Z,99454.69
2018-12-22T04:22:08.196Z,99437.45
2018-12-22T04:26:11.654Z,99441.55
2018-12-22T04:30:15.124Z,99430.78
2018-12-22T04:34:18.582Z,99440.47
2018-12-22T04:38:22.085Z,99426.19
2018-12-22T04:42:25.551Z,99427.59
2018-12-22T04:46:29.083Z,99422.00
2018-12-22T04:50:32.483Z,99418.64
2018-12-22T04:54:35.932Z,99420.01
2018-12-22T04:58:39.432Z,99426.19
2018-12-22T05:02:42.886Z,99431.05
2018-12-22T05:06:46.348Z,99426.74
2018-12-22T05:10:49.766Z,99421.56
2018-12-22T05:14:53.217Z,99434.70
2018-12-22T05:18:56.669Z,99430.77
2018-12-22T05:23:00.123Z,99431.69
2018-12-22T05:27:03.638Z,99438.63
2018-12-22T05:31:07.091Z,99441.67
2018-12-22T05:35:10.595Z,99440.38
2018-12-22T05:39:14.074Z,99442.59
2018-12-22T05:43:17.501Z,99437.85
2018-12-22T05:47:20.929Z,99437.13
2018-12-22T05:51:24.440Z,99434.17
2018-12-22T05:55:27.988Z,99420.25
2018-12-22T05:59:31.402Z,99414.62
2018-12-22T06:03:34.914Z,99423.42
2018-12-22T06:07:38.365Z,99421.73
2018-12-22T06:11:41.859Z,99397.70
2018-12-22T06:15:45.318Z,99399.45
2018-12-22T06:19:48.739Z,99405.17
2018-12-22T06:23:52.220Z,99380.68
2018-12-22T06:27:55.673Z,99388.14
2018-12-22T06:31:59.187Z,99404.79
2018-12-22T06:36:02.637Z,99425.82
2018-12-22T06:40:06.237Z,99442.01
2018-12-22T06:44:09.720Z,99456.02
2018-12-22T06:48:13.197Z,99436.77
2018-12-22T06:52:16.665Z,99439.41
2018-12-22T06:56:20.099Z,99445.98
2018-12-22T07:00:23.532Z,99445.09
2018-12-22T07:04:27.016Z,99448.59
2018-12-22T07:08:30.462Z,99442.91
2018-12-22T07:12:33.921Z,99451.68
2018-12-22T07:16:37.562Z,99463.94
2018-12-22T07:20:41.098Z,99461.77
2018-12-22T07:24:44.595Z,99454.75
2018-12-22T07:28:48.107Z,99444.66
2018-12-22T07:32:56.960Z,99449.04
2018-12-22T07:36:57.023Z,99415.75
2018-12-22T07:41:00.546Z,99425.80
2018-12-22T07:45:04.141Z,99429.30
2018-12-22T07:49:07.753Z,99417.48
2018-12-22T07:53:11.210Z,99430.16
2018-12-22T07:57:14.690Z,99441.98
2018-12-22T08:01:19.892Z,99446.80
2018-12-22T08:05:23.625Z,99445.04
2018-12-22T08:09:27.192Z,99462.12
2018-12-22T08:13:30.631Z,99484.47
2018-12-22T08:17:34.102Z,99498.50
2018-12-22T08:21:37.666Z,99515.58
2018-12-22T08:25:41.123Z,99523.05
2018-12-22T08:29:44.620Z,99548.05
2018-12-22T08:33:48.097Z,99566.89
2018-12-22T08:37:51.555Z,99591.89
2018-12-22T08:41:55.000Z,99594.52
2018-12-22T08:45:58.459Z,99583.57
2018-12-22T08:50:09.059Z,99555.52
2018-12-22T08:54:07.737Z,99571.76
2018-12-22T08:58:11.201Z,99541.09
2018-12-22T09:02:14.915Z,99531.91
2018-12-22T09:06:18.354Z,99545.03
2018-12-22T09:10:21.911Z,99546.84
2018-12-22T09:14:25.407Z,99549.47
2018-12-22T09:18:28.903Z,99533.23
2018-12-22T09:22:32.484Z,99526.20
2018-12-22T09:26:36.239Z,99527.06
2018-12-22T09:30:39.694Z,99542.88
2018-12-22T09:34:43.140Z,99550.34
2018-12-22T09:38:46.627Z,99539.83
2018-12-22T09:42:50.064Z,99544.64
2018-12-22T09:46:53.548Z,99553.41
2018-12-22T09:50:57.077Z,99549.02
2018-12-22T09:55:00.547Z,99549.91
2018-12-22T09:59:03.988Z,99551.67
2018-12-22T10:03:07.611Z,99534.14
2018-12-22T10:07:11.695Z,99539.83
2018-12-22T10:11:15.153Z,99548.59
2018-12-22T10:15:18.580Z,99552.11
2018-12-22T10:19:22.068Z,99555.19
2018-12-22T10:23:25.744Z,99565.27
2018-12-22T10:27:29.412Z,99561.77
2018-12-22T10:31:32.885Z,99558.25
2018-12-22T10:35:36.367Z,99542.01
2018-12-22T10:39:39.875Z,99542.45
2018-12-22T10:43:43.345Z,99560.88
2018-12-22T10:47:46.831Z,99554.73
2018-12-22T10:51:50.623Z,99549.92
2018-12-22T10:55:54.071Z,99543.75
2018-12-22T10:59:57.551Z,99538.95
2018-12-22T11:04:01.460Z,99525.78
2018-12-22T11:08:05.075Z,99506.05
2018-12-22T11:12:08.645Z,99501.64
2018-12-22T11:16:12.271Z,99484.53
2018-12-22T11:20:16.076Z,99500.75
2018-12-22T11:24:19.629Z,99491.09
2018-12-22T11:28:23.171Z,99489.31
2018-12-22T11:32:26.804Z,99481.84
2018-12-22T11:36:30.273Z,99477.88
2018-12-22T11:40:33.934Z,99476.06
2018-12-22T11:44:37.470Z,99456.75
2018-12-22T11:48:51.848Z,99449.66
2018-12-22T11:52:55.350Z,99448.73
2018-12-22T11:56:58.860Z,99444.76
2018-12-22T12:01:02.324Z,99436.33
2018-12-22T12:05:07.246Z,99446.84
2018-12-22T12:09:10.805Z,99451.64
2018-12-22T12:13:14.266Z,99478.00
2018-12-22T12:17:34.403Z,99476.70
2018-12-22T12:21:37.909Z,99460.05
2018-12-22T12:25:41.375Z,99435.55
2018-12-22T12:29:44.952Z,99415.41
2018-12-22T12:33:48.408Z,99456.29
2018-12-22T12:37:51.840Z,99471.69
2018-12-22T12:41:55.291Z,99538.45
2018-12-22T12:45:58.848Z,99469.98
2018-12-22T12:50:02.580Z,99505.12
2018-12-22T12:54:06.579Z,99447.23
2018-12-22T12:58:10.182Z,99511.73
2018-12-22T13:02:13.653Z,99521.84
2018-12-22T13:06:17.192Z,99518.75
2018-12-22T13:10:20.892Z,99516.16
2018-12-22T13:14:25.227Z,99513.07
2018-12-22T13:18:28.703Z,99522.73
2018-12-22T13:22:32.172Z,99524.47
2018-12-22T13:26:36.835Z,99523.59
2018-12-22T13:30:40.923Z,99512.17
2018-12-22T13:34:46.306Z,99504.73
2018-12-22T13:38:54.142Z,99517.44
2018-12-22T13:42:57.617Z,99509.55
2018-12-22T13:47:01.087Z,99496.80
2018-12-22T13:51:04.694Z,99504.70
2018-12-22T13:55:08.663Z,99501.62
2018-12-22T13:59:12.131Z,99483.19
2018-12-22T14:03:20.201Z,99491.09
2018-12-22T14:07:23.697Z,99498.08
2018-12-22T14:11:27.223Z,99496.31
2018-12-22T14:15:31.044Z,99500.68
2018-12-22T14:19:34.771Z,99502.86
2018-12-22T14:24:02.540Z,99511.20
2018-12-22T14:28:06.137Z,99516.48
2018-12-22T14:32:09.595Z,99518.20
2018-12-22T14:36:14.335Z,99523.92
2018-12-22T14:40:17.804Z,99530.52
2018-12-22T14:44:21.316Z,99540.59
2018-12-22T14:48:24.742Z,99549.81
2018-12-22T14:52:28.216Z,99571.31
2018-12-22T14:56:36.737Z,99582.30
2018-12-22T15:00:40.323Z,99587.56
2018-12-22T15:04:43.776Z,99598.97
2018-12-22T15:08:47.221Z,99619.60
2018-12-22T15:12:50.675Z,99622.23
2018-12-22T15:16:54.245Z,99651.22
2018-12-22T15:20:59.043Z,99647.27
2018-12-22T15:25:02.588Z,99637.17
2018-12-22T15:29:06.100Z,99646.39
2018-12-22T15:33:09.625Z,99646.84
2018-12-22T15:37:13.144Z,99650.37
2018-12-22T15:41:16.669Z,99657.37
2018-12-22T15:45:20.180Z,99636.33
2018-12-22T15:49:24.107Z,99609.98
2018-12-22T15:53:27.576Z,99621.39
2018-12-22T15:57:31.042Z,99634.11
2018-12-22T16:01:34.510Z,99645.55
2018-12-22T16:05:38.018Z,99659.58
2018-12-22T16:09:41.809Z,99674.97
2018-12-22T16:13:45.427Z,99645.13
2018-12-22T16:17:48.916Z,99665.28
2018-12-22T16:21:52.420Z,99673.22
2018-12-22T16:25:55.923Z,99678.92
2018-12-22T16:29:59.403Z,99682.41
2018-12-22T16:34:03.444Z,99692.07
2018-12-22T16:38:06.969Z,99687.23
2018-12-22T16:42:10.462Z,99682.87
2018-12-22T16:46:13.934Z,99704.79
2018-12-22T16:50:17.470Z,99694.25
2018-12-22T16:54:20.906Z,99713.58
2018-12-22T16:58:34.308Z,99725.42
2018-12-22T17:02:45.861Z,99726.73
2018-12-22T17:06:49.397Z,99728.03
2018-12-22T17:10:57.444Z,99728.48
2018-12-22T17:15:01.151Z,99747.80
2018-12-22T17:19:04.618Z,99762.69
2018-12-22T17:23:33.496Z,99772.36
2018-12-22T17:27:37.442Z,99792.08
2018-12-22T17:31:42.698Z,99803.87
2018-12-22T17:35:46.358Z,99802.13
2018-12-22T17:39:53.557Z,99810.87
2018-12-22T17:43:55.982Z,99814.88
2018-12-22T17:47:59.602Z,99830.26
2018-12-22T17:52:03.143Z,99834.22
2018-12-22T17:56:06.628Z,99834.62
2018-12-22T18:00:11.297Z,99835.05
2018-12-22T18:04:15.255Z,99852.17
2018-12-22T18:08:18.733Z,99849.53
2018-12-22T18:12:22.273Z,99855.22
2018-12-22T18:16:25.779Z,99854.30
2018-12-22T18:20:29.267Z,99852.53
2018-12-22T18:24:32.846Z,99854.24
2018-12-22T18:28:36.352Z,99859.48
2018-12-22T18:32:39.997Z,99859.90
2018-12-22T18:36:43.721Z,99862.05
2018-12-22T18:40:47.342Z,99878.27
2018-12-22T18:44:51.399Z,99882.20
2018-12-22T18:48:55.089Z,99879.14
2018-12-22T18:52:58.591Z,99877.83
2018-12-22T18:57:02.312Z,99878.27
2018-12-22T19:01:06.030Z,99886.16
2018-12-22T19:05:09.571Z,99894.46
2018-12-22T19:09:18.469Z,99895.34
2018-12-22T19:13:22.165Z,99894.87
2018-12-22T19:17:25.923Z,99893.50
2018-12-22T19:21:29.668Z,99893.93
2018-12-22T19:25:33.330Z,99894.36
2018-12-22T19:29:37.006Z,99890.84
2018-12-22T19:33:40.787Z,99895.22
2018-12-22T19:37:44.566Z,99888.16
2018-12-22T19:41:48.305Z,99903.92
2018-12-22T19:45:52.691Z,99915.31
2018-12-22T19:49:56.410Z,99927.56
2018-12-22T19:53:59.922Z,99925.80
2018-12-22T19:58:03.724Z,99924.92
2018-12-22T20:02:07.472Z,99934.14
2018-12-22T20:06:11.047Z,99933.70
2018-12-22T20:10:14.903Z,99938.91
2018-12-22T20:14:18.548Z,99934.50
2018-12-22T20:18:22.230Z,99939.73
2018-12-22T20:22:25.965Z,99941.04
2018-12-22T20:26:29.655Z,99944.98
2018-12-22T20:30:33.248Z,99951.12
2018-12-22T20:34:36.903Z,99962.49
2018-12-22T20:38:41.229Z,99944.06
2018-12-22T20:42:44.742Z,99956.31
2018-12-22T20:46:48.312Z,99958.48
2018-12-22T20:50:51.873Z,99969.86
2018-12-22T20:54:55.377Z,99967.69
2018-12-22T20:58:58.984Z,99980.39
2018-12-22T21:03:02.665Z,99982.14
2018-12-22T21:07:06.260Z,100000.11
2018-12-22T21:11:09.740Z,99992.67
2018-12-22T21:15:13.291Z,100004.09
2018-12-22T21:19:17.023Z,100011.59
2018-12-22T21:23:20.483Z,100021.23
2018-12-22T21:27:24.104Z,100022.55
2018-12-22T21:31:29.247Z,100032.64
2018-12-22T21:35:36.000Z,100031.77
2018-12-22T21:39:41.276Z,100032.22
2018-12-22T21:43:44.982Z,100033.07
2018-12-22T21:47:50.699Z,100038.31
2018-12-22T21:51:54.483Z,100029.95
2018-12-22T21:55:58.088Z,100041.34
2018-12-22T22:00:01.625Z,100032.54
2018-12-22T22:04:05.276Z,100039.97
2018-12-22T22:08:08.909Z,100047.42
2018-12-22T22:12:12.660Z,100056.16
2018-12-22T22:16:16.354Z,100074.13
2018-12-22T22:20:20.124Z,100085.98
2018-12-22T22:24:23.861Z,100086.89
2018-12-22T22:28:34.091Z,100087.78
2018-12-22T22:32:37.715Z,100097.41
2018-12-22T22:36:41.524Z,100091.22
2018-12-22T22:40:45.350Z,100091.20
2018-12-22T22:44:48.932Z,100108.69
2018-12-22T22:48:52.466Z,100099.42
2018-12-22T22:52:55.965Z,100077.50
2018-12-22T22:56:59.571Z,100087.50
2018-12-22T23:01:03.417Z,100079.12
2018-12-22T23:05:06.971Z,100086.98
2018-12-22T23:09:10.560Z,100091.78
2018-12-22T23:13:14.160Z,100087.83
2018-12-22T23:17:17.863Z,100080.79
2018-12-22T23:21:21.322Z,100084.73
2018-12-22T23:25:24.784Z,100092.59
2018-12-22T23:29:28.244Z,100090.87
2018-12-22T23:33:31.819Z,100093.50
2018-12-22T23:37:35.487Z,100101.83
2018-12-22T23:41:39.221Z,100095.66
2018-12-22T23:45:42.712Z,100093.00
2018-12-22T23:49:46.443Z,100102.22
2018-12-22T23:53:50.253Z,100093.08
2018-12-22T23:57:53.914Z,100083.00
